Time;durP1;ratioP1;P1;durP2;ratioP2;P2;SDS_P1;SDS_P2;PMS_P1;PMS_P2;Temp;Humidity;BMP_temperature;BMP_pressure;BME280_temperature;BME280_humidity;BME280_pressure;Samples;Min_cycle;Max_cycle;Signal;HPM_P1;HPM_P2
2022/01/17 00:01:40;;;;;;;33.63;16.05;;;;;;;1.39;93.88;100999.78;2014761;77;20337;-70
2022/01/17 00:04:43;;;;;;;36.16;16.94;;;;;;;1.37;93.76;100991.13;2017032;80;21430;-70
2022/01/17 00:07:46;;;;;;;38.09;16.60;;;;;;;1.37;93.90;100988.56;2017050;80;20325;-69
2022/01/17 00:10:49;;;;;;;38.10;16.45;;;;;;;1.33;93.89;100984.06;2018035;80;20325;-70
2022/01/17 00:13:52;;;;;;;36.56;15.80;;;;;;;1.33;94.09;100983.19;2018061;80;20346;-70
2022/01/17 00:17:08;;;;;;;39.69;16.35;;;;;;;1.32;94.04;100984.88;2019226;77;23971;-70
2022/01/17 00:20:14;;;;;;;33.86;16.54;;;;;;;1.35;94.19;100986.72;2022505;80;20337;-70
2022/01/17 00:23:17;;;;;;;35.76;15.49;;;;;;;1.35;94.15;100981.59;2022488;80;21114;-70
2022/01/17 00:26:19;;;;;;;38.10;16.48;;;;;;;1.32;94.01;100981.44;2023248;80;20505;-70
2022/01/17 00:29:22;;;;;;;34.42;14.96;;;;;;;1.28;94.05;100982.06;2022287;80;20304;-69
2022/01/17 00:35:45;;;;;;;37.44;15.16;;;;;;;1.25;94.31;100969.94;2023362;69;20355;-68
2022/01/17 00:38:47;;;;;;;37.06;15.60;;;;;;;1.24;94.55;100993.75;2012090;80;20341;-68
2022/01/17 00:41:50;;;;;;;34.78;14.17;;;;;;;1.25;94.73;100994.63;2012939;80;21129;-68
2022/01/17 00:44:53;;;;;;;34.35;14.40;;;;;;;1.28;94.76;100999.97;2013068;80;20270;-67
2022/01/17 00:47:57;;;;;;;33.50;14.90;;;;;;;1.27;94.53;100991.41;2011043;78;20666;-68
2022/01/17 00:50:59;;;;;;;35.72;15.05;;;;;;;1.27;94.69;100993.06;2012619;80;21586;-68
2022/01/17 00:54:02;;;;;;;30.23;13.52;;;;;;;1.30;94.68;100988.13;2012746;80;20857;-68
2022/01/17 00:57:06;;;;;;;30.06;13.50;;;;;;;1.27;94.56;100983.72;2012107;80;20172;-68
2022/01/17 01:00:10;;;;;;;30.98;14.06;;;;;;;1.20;94.39;100987.59;2010997;80;20374;-68
2022/01/17 01:03:13;;;;;;;30.33;13.41;;;;;;;1.18;94.46;100980.63;2011792;78;21399;-67
2022/01/17 01:06:16;;;;;;;32.14;14.61;;;;;;;1.18;94.65;100981.50;2012086;80;20370;-67
2022/01/17 01:09:19;;;;;;;27.69;12.60;;;;;;;1.15;94.61;100968.53;2011220;80;20204;-67
2022/01/17 01:12:21;;;;;;;29.29;12.80;;;;;;;1.16;94.83;100972.84;2011154;80;20344;-67
2022/01/17 01:27:38;;;;;;;25.70;12.68;;;;;;;1.18;94.83;100989.16;2011468;80;20236;-67
2022/01/17 01:28:44;;;;;;;25.21;12.40;;;;;;;1.20;94.80;100995.25;2010703;80;20347;-66
2022/01/17 01:31:58;;;;;;;23.98;12.06;;;;;;;1.23;94.85;100992.00;2009693;78;20444;-66
2022/01/17 01:35:02;;;;;;;25.52;12.23;;;;;;;1.20;94.84;100994.38;2011384;80;20336;-66
2022/01/17 01:38:04;;;;;;;27.89;12.70;;;;;;;1.17;94.97;101005.31;2011384;80;20322;-66
2022/01/17 01:41:07;;;;;;;26.19;12.24;;;;;;;1.18;95.17;100999.41;2011032;80;20298;-66
2022/01/17 01:44:22;;;;;;;30.17;12.88;;;;;;;1.21;95.14;101002.13;2010808;80;20890;-67
2022/01/17 01:47:26;;;;;;;26.88;11.95;;;;;;;1.21;95.11;101002.13;2009189;78;21814;-67
2022/01/17 01:50:29;;;;;;;28.88;12.94;;;;;;;1.25;95.24;100999.75;2010964;80;20338;-67
2022/01/17 01:53:32;;;;;;;31.38;13.66;;;;;;;1.25;95.22;100997.19;2010882;80;20334;-67
2022/01/17 01:56:40;;;;;;;29.67;14.18;;;;;;;1.24;95.11;100998.88;2011698;80;20403;-67
2022/01/17 01:59:42;;;;;;;25.20;12.30;;;;;;;1.22;95.09;101003.03;2011060;80;20319;-67
2022/01/17 02:02:45;;;;;;;30.63;14.63;;;;;;;1.21;95.29;101002.13;2009048;78;21645;-67
2022/01/17 02:05:49;;;;;;;27.78;13.48;;;;;;;1.19;95.26;100996.06;2010528;80;20415;-67
2022/01/17 02:08:51;;;;;;;32.16;13.76;;;;;;;1.22;95.41;101005.56;2011127;80;20212;-67
2022/01/17 02:11:54;;;;;;;27.31;12.51;;;;;;;1.26;95.53;101004.06;2011300;80;20330;-67
2022/01/17 02:14:57;;;;;;;29.46;11.60;;;;;;;1.27;95.52;101006.75;2010878;80;20418;-67
2022/01/17 02:17:59;;;;;;;27.38;12.77;;;;;;;1.29;95.44;101004.28;2008858;78;22706;-67
2022/01/17 02:24:18;;;;;;;22.95;11.04;;;;;;;1.26;95.42;101011.75;2012008;80;20322;-67
2022/01/17 02:27:21;;;;;;;25.39;11.61;;;;;;;1.28;95.64;101005.06;2011699;80;20314;-67
2022/01/17 02:30:26;;;;;;;21.49;10.70;;;;;;;1.29;95.64;101000.03;2010701;78;20217;-67
2022/01/17 02:33:28;;;;;;;28.19;12.21;;;;;;;1.30;95.54;101008.59;2012445;80;20314;-66
2022/01/17 02:36:31;;;;;;;24.89;11.07;;;;;;;1.32;95.59;101009.56;2012773;80;20348;-67
2022/01/17 02:39:34;;;;;;;24.85;12.11;;;;;;;1.33;95.52;101007.09;2011815;80;20483;-67
2022/01/17 02:42:37;;;;;;;25.08;10.66;;;;;;;1.32;95.57;101004.47;2013411;80;20362;-67
2022/01/17 02:48:57;;;;;;;24.89;11.70;;;;;;;1.29;95.42;100991.50;2022393;80;20328;-67
2022/01/17 02:52:00;;;;;;;23.91;11.51;;;;;;;1.28;95.61;100993.16;2022789;80;20973;-67
2022/01/17 02:55:03;;;;;;;21.66;11.43;;;;;;;1.29;95.71;100994.03;2021903;80;20420;-67
2022/01/17 02:58:06;;;;;;;21.81;10.75;;;;;;;1.30;95.63;100995.81;2023009;80;20336;-67
2022/01/17 03:01:21;;;;;;;20.84;10.16;;;;;;;1.31;95.71;101006.13;2017625;78;31830;-67
2022/01/17 03:04:24;;;;;;;20.89;10.25;;;;;;;1.32;95.63;101007.91;2025156;80;21098;-67
2022/01/17 03:07:27;;;;;;;18.96;10.31;;;;;;;1.33;95.68;101007.09;2024971;80;20467;-67
2022/01/17 03:10:43;;;;;;;23.64;11.44;;;;;;;1.34;95.67;101011.41;2024606;80;20304;-67
2022/01/17 03:13:47;;;;;;;21.63;10.00;;;;;;;1.36;95.72;101014.94;2024819;80;20418;-67
2022/01/17 03:16:50;;;;;;;23.05;10.41;;;;;;;1.37;95.72;101010.72;2023417;78;20814;-67
2022/01/17 03:19:53;;;;;;;20.95;10.49;;;;;;;1.38;95.74;101013.34;2024972;80;20296;-67
2022/01/17 03:22:55;;;;;;;21.52;10.13;;;;;;;1.39;95.76;101009.13;2024833;80;20312;-67
2022/01/17 03:25:58;;;;;;;19.80;10.43;;;;;;;1.39;95.78;100999.78;2025516;80;20323;-67
2022/01/17 03:29:02;;;;;;;20.66;10.82;;;;;;;1.39;95.73;100989.53;2024545;80;20362;-67
2022/01/17 03:32:05;;;;;;;21.94;10.39;;;;;;;1.38;95.69;100981.78;2023320;77;21426;-67
2022/01/17 03:35:08;;;;;;;24.73;11.23;;;;;;;1.37;95.78;100969.78;2024977;80;20333;-67
2022/01/17 03:38:14;;;;;;;22.51;10.34;;;;;;;1.37;95.69;100965.53;2025501;80;20376;-67
2022/01/17 03:41:16;;;;;;;24.70;11.09;;;;;;;1.36;95.91;100976.56;2024818;80;20774;-67
2022/01/17 03:44:19;;;;;;;21.52;10.85;;;;;;;1.39;96.03;100993.78;2024966;80;20367;-67
2022/01/17 03:47:21;;;;;;;21.60;10.44;;;;;;;1.40;96.05;101003.22;2022984;78;20334;-67
2022/01/17 03:50:26;;;;;;;22.70;10.40;;;;;;;1.42;96.06;101017.84;2024832;80;20323;-67
2022/01/17 03:53:28;;;;;;;22.35;11.01;;;;;;;1.44;96.02;101026.53;2025356;80;20356;-67
2022/01/17 03:56:31;;;;;;;26.14;11.74;;;;;;;1.44;95.97;101029.09;2023161;80;21277;-67
2022/01/17 03:59:34;;;;;;;20.69;10.79;;;;;;;1.47;96.03;101028.38;2024546;80;20316;-67
2022/01/17 04:02:36;;;;;;;24.91;10.73;;;;;;;1.47;95.93;101029.25;2022623;78;21204;-67
2022/01/17 04:05:39;;;;;;;23.65;11.05;;;;;;;1.45;95.92;101022.28;2022829;80;20378;-67
2022/01/17 04:08:42;;;;;;;26.46;11.19;;;;;;;1.42;95.98;101022.97;2023620;80;20910;-67
2022/01/17 04:11:44;;;;;;;22.85;10.55;;;;;;;1.42;96.14;101007.63;2022384;80;20315;-67
2022/01/17 04:14:47;;;;;;;24.58;11.46;;;;;;;1.43;96.18;101009.38;2019145;80;21414;-67
2022/01/17 04:17:50;;;;;;;25.79;12.15;;;;;;;1.43;96.21;101018.75;2021335;77;27322;-67
2022/01/17 04:20:53;;;;;;;26.59;11.89;;;;;;;1.44;96.28;101025.66;2023445;80;20351;-67
2022/01/17 04:23:56;;;;;;;24.46;11.71;;;;;;;1.46;96.33;101021.50;2023090;80;20344;-67
2022/01/17 04:26:59;;;;;;;26.13;11.96;;;;;;;1.47;96.33;101015.59;2023440;80;20342;-67
2022/01/17 04:30:05;;;;;;;23.99;11.23;;;;;;;1.48;96.32;101007.13;2022174;80;20300;-67
2022/01/17 04:33:08;;;;;;;24.75;12.00;;;;;;;1.46;96.27;101013.81;2022740;80;21105;-67
2022/01/17 04:36:10;;;;;;;24.38;11.25;;;;;;;1.46;96.26;101011.25;2023708;80;20332;-67
2022/01/17 04:39:16;;;;;;;26.45;12.01;;;;;;;1.48;96.49;101005.44;2023180;80;20348;-67
2022/01/17 04:42:26;;;;;;;26.13;12.68;;;;;;;1.48;96.34;101004.56;2023426;80;20300;-67
2022/01/17 04:45:29;;;;;;;29.30;12.23;;;;;;;1.49;96.42;100996.06;2016775;77;22339;-67
2022/01/17 04:48:32;;;;;;;28.40;13.25;;;;;;;1.50;96.42;100998.72;2023221;80;20429;-67
2022/01/17 04:51:34;;;;;;;27.56;12.93;;;;;;;1.50;96.34;101000.41;2022095;80;20316;-67
2022/01/17 04:54:40;;;;;;;26.13;12.34;;;;;;;1.50;96.37;100990.16;2023445;80;20329;-67
2022/01/17 04:57:44;;;;;;;27.92;12.85;;;;;;;1.47;96.35;100987.44;2022674;80;20353;-67
2022/01/17 05:00:47;;;;;;;26.35;11.63;;;;;;;1.47;96.40;100987.44;2022200;78;22895;-67
2022/01/17 05:03:50;;;;;;;27.51;11.85;;;;;;;1.47;96.62;100987.44;2022847;80;20410;-67
2022/01/17 05:06:53;;;;;;;27.84;12.76;;;;;;;1.49;96.57;100980.72;2022759;80;20333;-67
2022/01/17 05:09:56;;;;;;;25.38;11.59;;;;;;;1.47;96.49;100980.63;2023799;80;20348;-67
2022/01/17 05:12:58;;;;;;;27.74;11.43;;;;;;;1.50;96.67;100985.03;2022791;80;20734;-67
2022/01/17 05:16:11;;;;;;;28.58;12.45;;;;;;;1.51;96.68;100981.69;2021285;78;20896;-67
2022/01/17 05:22:36;;;;;;;27.14;12.84;;;;;;;1.52;96.64;100981.78;2023361;80;20318;-67
2022/01/17 05:25:39;;;;;;;26.49;13.11;;;;;;;1.52;96.62;101001.38;2022410;80;20426;-67
2022/01/17 05:28:42;;;;;;;28.85;13.36;;;;;;;1.51;96.72;101010.72;2023221;80;20312;-67
2022/01/17 05:31:45;;;;;;;25.96;12.51;;;;;;;1.53;96.73;101013.38;2021006;78;20389;-67
2022/01/17 05:34:49;;;;;;;27.16;11.88;;;;;;;1.53;96.65;101015.94;2019497;80;21211;-67
2022/01/17 05:37:52;;;;;;;28.83;11.79;;;;;;;1.55;96.79;101010.91;2016949;80;20928;-67
2022/01/17 05:40:54;;;;;;;29.38;12.18;;;;;;;1.58;96.79;101009.38;2018315;80;20320;-67
2022/01/17 05:43:58;;;;;;;25.59;12.21;;;;;;;1.57;96.67;101014.41;2017607;80;20331;-67
2022/01/17 05:47:00;;;;;;;27.75;12.15;;;;;;;1.57;96.72;101025.53;2014518;78;21345;-67
2022/01/17 05:50:04;;;;;;;28.73;13.24;;;;;;;1.56;96.64;101028.00;2023023;80;20466;-67
2022/01/17 05:53:07;;;;;;;26.88;12.04;;;;;;;1.58;96.85;101028.97;2022751;80;20671;-67
2022/01/17 05:56:10;;;;;;;25.36;11.50;;;;;;;1.57;96.78;101030.66;2023136;80;21097;-67
2022/01/17 05:59:12;;;;;;;29.19;12.27;;;;;;;1.57;96.74;101035.78;2023435;80;20375;-67
2022/01/17 06:02:15;;;;;;;25.70;12.24;;;;;;;1.58;96.82;101037.53;2021278;80;20406;-67
2022/01/17 06:05:18;;;;;;;24.95;12.74;;;;;;;1.60;96.87;101035.94;2022924;80;21019;-67
2022/01/17 06:08:21;;;;;;;27.56;12.24;;;;;;;1.62;96.83;101025.84;2022868;80;21119;-67
2022/01/17 06:11:23;;;;;;;23.81;11.39;;;;;;;1.63;96.80;101032.72;2023344;80;21286;-67
2022/01/17 06:14:26;;;;;;;22.58;11.50;;;;;;;1.64;96.79;101043.03;2023052;80;20451;-67
2022/01/17 06:17:28;;;;;;;24.70;11.44;;;;;;;1.65;96.68;101034.56;2016972;77;20635;-67
2022/01/17 06:20:31;;;;;;;26.41;11.84;;;;;;;1.66;96.73;101027.75;2017444;80;20349;-66
2022/01/17 06:23:33;;;;;;;22.84;10.55;;;;;;;1.66;96.71;101017.53;2018080;80;20779;-67
2022/01/17 06:26:37;;;;;;;22.66;11.81;;;;;;;1.64;96.65;101014.88;2017406;80;20403;-67
2022/01/17 06:29:40;;;;;;;24.64;11.34;;;;;;;1.64;96.74;101014.88;2018167;80;20853;-67
2022/01/17 06:32:43;;;;;;;25.13;11.13;;;;;;;1.65;96.78;101016.66;2015753;77;22643;-67
2022/01/17 06:35:45;;;;;;;24.05;11.20;;;;;;;1.61;96.62;101014.69;2017350;80;20366;-67
2022/01/17 06:38:49;;;;;;;20.44;10.45;;;;;;;1.62;96.88;101013.91;2017263;80;20326;-67
2022/01/17 06:41:52;;;;;;;23.76;11.26;;;;;;;1.62;96.75;101020.72;2018349;80;20403;-67
2022/01/17 06:44:54;;;;;;;23.75;10.93;;;;;;;1.61;96.88;101021.47;2017685;80;20325;-67
2022/01/17 06:47:57;;;;;;;21.38;10.39;;;;;;;1.60;96.81;101033.41;2015850;77;32186;-67
2022/01/17 06:51:00;;;;;;;21.36;9.86;;;;;;;1.62;97.03;101028.38;2014351;80;20309;-67
2022/01/17 06:54:02;;;;;;;19.42;9.64;;;;;;;1.63;97.10;101028.47;2018221;80;21083;-67
2022/01/17 06:57:05;;;;;;;21.75;10.09;;;;;;;1.62;96.95;101060.00;2018089;80;20317;-66
2022/01/17 07:00:10;;;;;;;21.67;10.21;;;;;;;1.65;97.08;101056.72;2015696;80;20346;-67
2022/01/17 07:03:14;;;;;;;20.04;9.04;;;;;;;1.68;97.04;101044.09;2022237;78;35588;-66
2022/01/17 07:06:17;;;;;;;20.23;9.15;;;;;;;1.70;97.01;101037.38;2021410;80;20949;-66
2022/01/17 07:09:21;;;;;;;20.65;9.95;;;;;;;1.68;96.90;101064.56;2021732;80;20328;-66
2022/01/17 07:12:24;;;;;;;18.23;9.50;;;;;;;1.68;96.98;101064.56;2022720;80;20315;-66
2022/01/17 07:15:27;;;;;;;16.21;9.14;;;;;;;1.69;97.08;101079.13;2020760;77;29808;-67
2022/01/17 07:18:29;;;;;;;19.05;9.94;;;;;;;1.71;97.04;101078.44;2022079;80;20411;-67
2022/01/17 07:21:33;;;;;;;18.24;9.13;;;;;;;1.73;97.05;101092.19;2022683;80;20442;-67
2022/01/17 07:24:36;;;;;;;19.59;9.81;;;;;;;1.76;97.03;101094.06;2022060;80;20374;-66
2022/01/17 07:27:40;;;;;;;21.10;9.71;;;;;;;1.76;96.92;101128.22;2023214;80;20334;-67
2022/01/17 07:30:43;;;;;;;20.26;9.11;;;;;;;1.77;96.78;101132.56;2019952;77;21846;-67
2022/01/17 07:33:45;;;;;;;18.14;9.61;;;;;;;1.78;96.87;101115.50;2022837;80;21321;-66
2022/01/17 07:36:49;;;;;;;18.40;9.01;;;;;;;1.77;96.81;101108.63;2022579;80;20312;-68
2022/01/17 07:39:51;;;;;;;18.56;9.65;;;;;;;1.75;96.77;101110.22;2022109;80;20331;-67
2022/01/17 07:42:54;;;;;;;16.17;8.20;;;;;;;1.77;96.97;101111.19;2022747;80;20781;-68
2022/01/17 07:46:07;;;;;;;15.93;8.60;;;;;;;1.77;96.86;101098.38;2020791;78;20998;-67
2022/01/17 07:49:10;;;;;;;16.13;8.80;;;;;;;1.80;96.95;101134.44;2022182;80;20373;-67
2022/01/17 07:52:13;;;;;;;17.69;9.05;;;;;;;1.81;96.93;101142.19;2023394;80;20351;-67
2022/01/17 07:55:17;;;;;;;15.50;8.38;;;;;;;1.85;96.87;101137.25;2019656;80;20824;-67
2022/01/17 07:58:19;;;;;;;18.26;9.43;;;;;;;1.86;96.68;101146.69;2023505;80;20690;-67
2022/01/17 08:01:22;;;;;;;15.43;8.80;;;;;;;1.83;96.69;101138.84;2021110;77;20442;-68
2022/01/17 08:04:25;;;;;;;16.06;9.16;;;;;;;1.86;96.94;101132.22;2023183;80;20312;-69
2022/01/17 08:07:28;;;;;;;17.66;8.96;;;;;;;1.88;96.91;101125.50;2023764;80;20315;-68
2022/01/17 08:10:32;;;;;;;17.44;8.41;;;;;;;1.87;96.92;101116.06;2023694;80;20434;-68
2022/01/17 08:13:35;;;;;;;16.67;8.55;;;;;;;1.90;96.93;101116.22;2018708;80;20373;-69
2022/01/17 08:16:38;;;;;;;14.91;8.27;;;;;;;1.91;96.97;101118.00;2020756;78;46331;-68
2022/01/17 08:19:41;;;;;;;17.11;8.94;;;;;;;1.92;97.00;101126.56;2023177;80;20552;-68
2022/01/17 08:22:45;;;;;;;16.90;9.16;;;;;;;1.92;96.84;101127.44;2022761;80;20308;-68
2022/01/17 08:25:47;;;;;;;15.76;8.79;;;;;;;1.92;96.93;101119.75;2023097;80;20371;-68
2022/01/17 08:28:55;;;;;;;14.98;8.19;;;;;;;1.95;96.95;101129.28;2019789;80;20348;-68
2022/01/17 08:32:00;;;;;;;18.69;8.77;;;;;;;1.96;96.93;101121.69;2021895;78;22730;-68
2022/01/17 08:35:03;;;;;;;13.89;8.13;;;;;;;1.97;96.96;101130.25;2020498;80;20324;-68
2022/01/17 08:38:06;;;;;;;16.11;8.26;;;;;;;2.00;96.99;101130.47;2017490;80;20289;-68
2022/01/17 08:41:09;;;;;;;14.23;7.97;;;;;;;2.02;96.84;101137.44;2017779;80;20312;-69
2022/01/17 08:44:13;;;;;;;15.25;8.35;;;;;;;2.04;96.77;101130.72;2017937;80;20448;-68
2022/01/17 08:47:17;;;;;;;15.01;8.04;;;;;;;2.10;96.88;101133.63;2016396;78;20325;-68
2022/01/17 08:50:22;;;;;;;15.04;7.99;;;;;;;2.15;96.76;101125.31;2019294;80;20840;-68
2022/01/17 08:53:26;;;;;;;12.34;7.70;;;;;;;2.19;96.67;101127.28;2018785;80;20497;-68
2022/01/17 08:56:30;;;;;;;15.19;7.96;;;;;;;2.21;96.55;101134.25;2017913;80;20325;-68
2022/01/17 08:59:33;;;;;;;14.34;7.65;;;;;;;2.24;96.39;101142.09;2017885;80;20443;-68
2022/01/17 09:02:35;;;;;;;12.65;7.26;;;;;;;2.25;96.26;101137.88;2015896;78;20379;-68
2022/01/17 09:05:38;;;;;;;14.02;7.88;;;;;;;2.28;96.23;101127.78;2018181;80;20357;-68
2022/01/17 09:08:42;;;;;;;12.68;7.10;;;;;;;2.26;95.90;101134.50;2018120;80;20411;-69
2022/01/17 09:11:45;;;;;;;13.68;7.82;;;;;;;2.28;96.05;101148.28;2018864;80;20345;-69
2022/01/17 09:14:47;;;;;;;11.81;6.91;;;;;;;2.31;96.04;101153.56;2018375;80;20317;-68
2022/01/17 09:17:50;;;;;;;12.23;7.55;;;;;;;2.33;96.02;101164.78;2016118;80;22309;-68
2022/01/17 09:20:53;;;;;;;12.82;7.05;;;;;;;2.37;96.09;101166.75;2017441;80;20336;-68
2022/01/17 09:23:58;;;;;;;11.48;7.03;;;;;;;2.43;96.07;101170.53;2018115;80;21147;-68
2022/01/17 09:27:02;;;;;;;13.20;7.28;;;;;;;2.47;96.03;101166.47;2016834;80;20321;-68
2022/01/17 09:30:11;;;;;;;9.41;6.39;;;;;;;2.54;95.99;101167.72;2016545;80;20763;-68
2022/01/17 09:33:14;;;;;;;11.84;6.94;;;;;;;2.58;95.99;101156.81;2016956;77;22934;-67
2022/01/17 09:36:16;;;;;;;9.64;6.65;;;;;;;2.67;95.97;101163.34;2018059;80;20327;-67
2022/01/17 09:39:19;;;;;;;11.75;6.57;;;;;;;2.72;95.50;101166.19;2017290;80;20825;-67
2022/01/17 09:42:22;;;;;;;9.99;6.31;;;;;;;2.77;95.54;101189.50;2017229;80;20347;-67
2022/01/17 09:45:25;;;;;;;11.32;7.06;;;;;;;2.84;95.58;101187.34;2015572;78;21574;-67
2022/01/17 09:48:36;;;;;;;10.55;6.57;;;;;;;2.93;95.43;101187.00;2013378;80;20325;-67
2022/01/17 09:52:05;;;;;;;9.93;6.84;;;;;;;3.00;95.23;101197.66;2017548;80;20309;-68
2022/01/17 09:55:13;;;;;;;7.62;5.58;;;;;;;3.10;95.30;101195.63;2017330;80;20353;-68
2022/01/17 09:58:16;;;;;;;8.29;6.00;;;;;;;3.19;95.00;101190.97;2017072;80;20729;-68
2022/01/17 10:01:18;;;;;;;7.85;5.66;;;;;;;3.32;94.94;101178.88;2013952;77;21188;-68
2022/01/17 10:04:21;;;;;;;6.68;4.91;;;;;;;3.44;94.75;101183.78;2012399;80;20374;-68
2022/01/17 10:07:25;;;;;;;5.68;4.91;;;;;;;3.58;94.44;101193.06;2012494;80;20716;-68
2022/01/17 10:10:49;;;;;;;4.95;4.39;;;;;;;3.67;93.26;101184.09;2009419;80;20364;-68
2022/01/17 10:13:52;;;;;;;5.01;4.36;;;;;;;3.79;93.04;101216.47;2011919;80;20326;-68
2022/01/17 10:16:55;;;;;;;4.66;4.26;;;;;;;3.83;92.34;101186.66;2012655;78;22415;-68
2022/01/17 10:20:01;;;;;;;5.13;4.21;;;;;;;3.82;91.82;101193.50;2015635;80;20975;-68
2022/01/17 10:23:29;;;;;;;4.89;4.32;;;;;;;3.89;91.36;101202.38;2013732;80;20394;-68
2022/01/17 10:26:58;;;;;;;6.14;4.42;;;;;;;3.87;90.64;101199.72;2013774;80;20309;-68
2022/01/17 10:36:56;;;;;;;4.60;4.06;;;;;;;3.85;90.46;101190.19;2015359;80;20481;-68
2022/01/17 10:40:04;;;;;;;4.97;4.10;;;;;;;3.77;89.92;101204.31;2018903;80;20366;-68
2022/01/17 10:43:18;;;;;;;4.79;3.94;;;;;;;3.72;90.05;101200.63;2015938;80;20370;-68
2022/01/17 10:46:22;;;;;;;4.05;3.64;;;;;;;3.68;89.94;101196.13;2011732;77;21540;-69
2022/01/17 10:49:44;;;;;;;4.91;3.96;;;;;;;3.65;90.05;101194.28;2010434;80;20322;-69
2022/01/17 10:52:50;;;;;;;3.85;3.50;;;;;;;3.68;90.17;101199.59;2010823;80;20367;-69
2022/01/17 10:55:56;;;;;;;6.05;3.94;;;;;;;3.69;90.15;101206.50;2010627;80;20369;-69
2022/01/17 10:59:03;;;;;;;5.45;4.26;;;;;;;3.70;90.26;101202.22;2011074;80;20393;-69
2022/01/17 11:02:08;;;;;;;4.59;4.06;;;;;;;3.70;90.41;101215.06;2013258;78;20800;-69
2022/01/17 11:05:13;;;;;;;6.50;4.24;;;;;;;3.72;90.40;101221.19;2016591;80;20342;-69
2022/01/17 11:08:17;;;;;;;4.21;3.81;;;;;;;3.66;90.15;101219.19;2016070;80;20854;-69
2022/01/17 11:11:23;;;;;;;5.05;4.09;;;;;;;3.68;90.64;101237.25;2015831;80;20416;-69
2022/01/17 11:14:29;;;;;;;4.96;4.15;;;;;;;3.61;90.43;101220.63;2015915;80;20339;-69
2022/01/17 11:17:38;;;;;;;4.35;3.54;;;;;;;3.68;90.50;101219.25;2013522;78;20496;-69
2022/01/17 11:20:41;;;;;;;3.61;3.31;;;;;;;3.67;90.53;101204.66;2015656;80;20404;-69
2022/01/17 11:23:47;;;;;;;5.38;3.99;;;;;;;3.70;90.61;101192.84;2016032;80;20931;-69
2022/01/17 11:26:50;;;;;;;4.32;3.88;;;;;;;3.67;90.23;101197.81;2016775;80;20338;-69
2022/01/17 11:29:53;;;;;;;5.25;3.95;;;;;;;3.67;90.30;101195.25;2016965;80;20347;-69
2022/01/17 11:32:58;;;;;;;4.22;3.83;;;;;;;3.70;90.42;101204.81;2014875;78;20589;-69
2022/01/17 11:36:01;;;;;;;3.84;3.54;;;;;;;3.74;90.59;101207.59;2016381;80;20851;-69
2022/01/17 11:39:04;;;;;;;4.21;3.81;;;;;;;3.77;90.63;101214.59;2016795;80;20305;-69
2022/01/17 11:42:27;;;;;;;4.51;4.00;;;;;;;3.82;90.70;101223.44;2016537;80;20440;-69
2022/01/17 11:45:33;;;;;;;3.99;3.50;;;;;;;3.85;90.58;101213.31;2015214;78;21032;-69
2022/01/17 11:48:36;;;;;;;4.25;3.80;;;;;;;3.86;90.52;101213.38;2019315;80;20342;-69
2022/01/17 11:51:44;;;;;;;4.25;3.85;;;;;;;3.91;90.43;101217.06;2016173;80;20429;-69
2022/01/17 11:54:46;;;;;;;4.00;3.60;;;;;;;3.94;90.26;101212.09;2016160;80;20305;-69
2022/01/17 11:58:27;;;;;;;3.86;3.46;;;;;;;3.96;90.47;101212.19;2016641;80;20466;-69
2022/01/17 12:01:30;;;;;;;5.53;3.58;;;;;;;3.97;90.50;101213.94;2014557;78;33022;-68
2022/01/17 12:04:33;;;;;;;4.61;4.21;;;;;;;3.99;90.41;101199.50;2016699;80;20446;-68
2022/01/17 12:07:37;;;;;;;3.84;3.54;;;;;;;4.01;90.35;101181.56;2016036;80;20341;-69
2022/01/17 12:11:01;;;;;;;5.72;4.04;;;;;;;4.04;90.50;101192.88;2016333;80;20349;-69
2022/01/17 12:14:52;;;;;;;4.99;4.16;;;;;;;4.08;90.51;101199.06;2016922;80;20820;-69
2022/01/17 12:18:26;;;;;;;4.89;4.26;;;;;;;4.06;90.36;101213.53;1998863;78;21225;-69
2022/01/17 12:21:41;;;;;;;4.09;3.67;;;;;;;4.08;90.34;101233.34;2010346;80;20306;-69
2022/01/17 12:24:46;;;;;;;4.39;3.94;;;;;;;4.10;90.32;101220.56;2011439;80;20334;-69
2022/01/17 12:27:50;;;;;;;5.95;4.13;;;;;;;4.12;90.27;101214.72;2012488;80;20318;-70
2022/01/17 12:30:57;;;;;;;4.96;4.38;;;;;;;4.11;90.05;101212.94;2009326;78;21689;-69
2022/01/17 12:34:20;;;;;;;5.22;4.72;;;;;;;4.10;89.85;101225.72;2011864;80;20342;-69
2022/01/17 12:37:46;;;;;;;5.80;3.97;;;;;;;4.10;90.10;101198.31;2011241;80;20344;-69
2022/01/17 12:40:49;;;;;;;6.35;4.68;;;;;;;4.11;89.90;101184.66;2010994;80;20416;-69
2022/01/17 12:43:51;;;;;;;4.81;4.21;;;;;;;4.14;90.06;101191.69;2011470;80;20314;-69
2022/01/17 12:46:57;;;;;;;5.49;4.41;;;;;;;4.15;89.92;101185.72;2009540;78;20620;-69
2022/01/17 12:50:03;;;;;;;5.34;4.51;;;;;;;4.15;89.77;101175.44;2011627;80;20336;-69
2022/01/17 12:53:09;;;;;;;5.69;4.60;;;;;;;4.17;89.86;101178.97;2011346;80;20401;-68
2022/01/17 12:56:14;;;;;;;6.49;4.45;;;;;;;4.17;89.77;101174.72;2011722;80;20338;-69
2022/01/17 12:59:17;;;;;;;5.11;4.11;;;;;;;4.15;89.70;101178.91;2012272;80;20701;-70
2022/01/17 13:02:20;;;;;;;6.72;4.53;;;;;;;4.16;89.80;101196.09;2008338;80;23207;-69
2022/01/17 13:05:31;;;;;;;6.45;4.64;;;;;;;4.18;89.96;101193.59;2010178;80;20806;-69
2022/01/17 13:08:35;;;;;;;6.74;4.90;;;;;;;4.18;89.93;101186.75;2010949;80;20368;-69
2022/01/17 13:11:41;;;;;;;5.74;4.24;;;;;;;4.19;89.79;101182.50;2011227;80;21056;-69
2022/01/17 13:14:44;;;;;;;5.99;4.55;;;;;;;4.18;nan;101176.47;2011655;80;20330;-69
2022/01/17 13:17:52;;;;;;;5.19;4.57;;;;;;;4.18;nan;101173.91;2014533;78;20439;-69
2022/01/17 13:20:56;;;;;;;5.69;4.61;;;;;;;4.19;89.55;101167.06;2016171;80;20475;-69
2022/01/17 13:27:10;;;;;;;5.20;4.51;;;;;;;4.13;89.59;101169.31;2016146;80;20439;-70
2022/01/17 13:30:13;;;;;;;6.29;4.70;;;;;;;4.13;89.77;101159.03;2014470;80;20313;-69
2022/01/17 13:33:17;;;;;;;7.96;5.38;;;;;;;4.10;89.83;101171.75;2016817;78;20353;-70
2022/01/17 13:36:30;;;;;;;6.13;4.95;;;;;;;4.12;89.86;101170.13;2015690;80;20317;-70
2022/01/17 13:39:33;;;;;;;6.46;4.81;;;;;;;4.09;89.99;101181.13;2016304;80;20310;-69
2022/01/17 13:42:44;;;;;;;7.32;5.21;;;;;;;4.12;90.29;101170.13;2015582;80;20338;-68
2022/01/17 13:45:55;;;;;;;7.43;5.57;;;;;;;4.14;90.33;101155.69;2012913;78;23561;-68
2022/01/17 13:48:58;;;;;;;6.28;4.99;;;;;;;4.07;90.07;101156.16;2010514;80;20344;-68
2022/01/17 13:52:03;;;;;;;7.93;5.28;;;;;;;4.08;90.29;101168.22;2010625;80;20356;-69
2022/01/17 13:55:37;;;;;;;6.60;5.38;;;;;;;4.10;90.39;101161.47;2010698;80;20377;-69
2022/01/17 13:58:43;;;;;;;6.39;5.29;;;;;;;4.12;90.48;101147.00;2010601;80;20891;-69
2022/01/17 14:01:46;;;;;;;8.68;5.57;;;;;;;4.12;90.41;101135.03;2008722;78;20552;-69
2022/01/17 14:04:49;;;;;;;7.89;5.44;;;;;;;4.10;90.38;101118.66;2010506;80;21032;-69
2022/01/17 14:07:52;;;;;;;7.30;5.86;;;;;;;4.13;90.50;101113.69;2011205;80;20372;-69
2022/01/17 14:11:01;;;;;;;6.44;5.39;;;;;;;4.13;90.45;101128.19;2010915;80;20367;-69
2022/01/17 14:14:08;;;;;;;6.29;4.86;;;;;;;4.16;90.48;101130.94;2011097;80;20322;-69
2022/01/17 14:17:28;;;;;;;5.55;4.88;;;;;;;4.21;90.59;101135.50;2007740;80;21158;-69
2022/01/17 14:20:31;;;;;;;7.25;5.40;;;;;;;4.26;90.46;101143.41;2010803;80;20438;-69
2022/01/17 14:23:36;;;;;;;5.51;4.89;;;;;;;4.31;90.27;101152.25;2007227;80;20314;-69
2022/01/17 14:26:46;;;;;;;5.68;4.93;;;;;;;4.32;90.10;101166.88;2010611;80;20374;-69
2022/01/17 14:29:49;;;;;;;;;;;;;;;4.36;89.92;101163.66;2011286;80;20310;-69
2022/01/17 14:33:13;;;;;;;6.26;4.94;;;;;;;4.38;89.96;101163.72;2013733;78;20965;-69
2022/01/17 14:36:18;;;;;;;5.11;4.57;;;;;;;4.34;89.66;101161.81;2015801;80;20354;-69
2022/01/17 14:39:29;;;;;;;5.68;4.69;;;;;;;4.36;89.75;101168.78;2016295;80;20326;-69
2022/01/17 14:42:38;;;;;;;5.99;5.39;;;;;;;4.37;89.67;101178.28;2015619;80;20312;-69
2022/01/17 14:45:48;;;;;;;6.20;4.93;;;;;;;4.35;89.55;101179.00;2013696;78;20619;-69
2022/01/17 14:48:51;;;;;;;5.70;5.07;;;;;;;4.36;89.81;101171.38;2015340;80;20346;-69
2022/01/17 14:51:57;;;;;;;5.61;4.55;;;;;;;4.35;89.63;101164.47;2015874;80;20870;-69
2022/01/17 15:01:37;;;;;;;5.00;4.50;;;;;;;4.44;89.67;101197.44;2014936;78;20585;-69